createdAt,value
2023-03-22T00:00:02.861Z,8.8
2023-03-22T00:01:01.713Z,8.8
2023-03-22T00:02:01.813Z,8.8
2023-03-22T00:03:01.919Z,8.8
2023-03-22T00:04:01.867Z,8.8
2023-03-22T00:05:02.331Z,8.8
2023-03-22T00:06:02.392Z,8.8
2023-03-22T00:07:02.264Z,8.7
2023-03-22T00:08:02.270Z,8.7
2023-03-22T00:09:02.182Z,8.7
2023-03-22T00:10:02.226Z,8.7
2023-03-22T00:11:02.073Z,8.5
2023-03-22T00:12:02.128Z,8.4
2023-03-22T00:13:01.981Z,8.3
2023-03-22T00:14:01.917Z,8.3
2023-03-22T00:15:01.943Z,8.3
2023-03-22T00:16:01.830Z,8.3
2023-03-22T00:17:01.932Z,8.3
2023-03-22T00:18:01.997Z,8.3
2023-03-22T00:19:01.862Z,8.4
2023-03-22T00:20:01.813Z,8.4
2023-03-22T00:21:01.823Z,8.4
2023-03-22T00:22:01.695Z,8.4
2023-03-22T00:23:01.691Z,8.5
2023-03-22T00:24:01.546Z,8.5
2023-03-22T00:25:01.611Z,8.5
2023-03-22T00:26:01.430Z,8.5
2023-03-22T00:27:01.510Z,8.5
2023-03-22T00:28:01.370Z,8.4
2023-03-22T00:29:01.418Z,8.4
2023-03-22T00:30:02.394Z,8.5
2023-03-22T00:31:02.246Z,8.4
2023-03-22T00:32:01.324Z,8.4
2023-03-22T00:33:02.378Z,8.4
2023-03-22T00:34:02.314Z,8.3
2023-03-22T00:35:02.298Z,8.4
2023-03-22T00:36:02.190Z,8.5
2023-03-22T00:37:02.196Z,8.4
2023-03-22T00:38:02.099Z,8.3
2023-03-22T00:39:02.177Z,8.4
2023-03-22T00:40:02.037Z,8.3
2023-03-22T00:41:02.034Z,8.3
2023-03-22T00:42:01.936Z,8.2
2023-03-22T00:43:01.924Z,8.3
2023-03-22T00:44:01.942Z,8.2
2023-03-22T00:45:01.777Z,8.2
2023-03-22T00:46:01.724Z,8.2
2023-03-22T00:47:01.867Z,8.3
2023-03-22T00:48:01.875Z,8.3
2023-03-22T00:49:01.753Z,8.2
2023-03-22T00:50:01.763Z,8.2
2023-03-22T00:51:01.775Z,8.2
2023-03-22T00:52:01.614Z,8.2
2023-03-22T00:53:01.651Z,8.2
2023-03-22T00:54:01.468Z,8.2
2023-03-22T00:55:01.427Z,8.1
2023-03-22T00:56:01.335Z,8.1
2023-03-22T00:57:02.426Z,8.1
2023-03-22T00:58:02.291Z,8.2
2023-03-22T00:59:02.308Z,8.2
2023-03-22T01:00:02.208Z,8.1
2023-03-22T01:01:02.254Z,8.1
2023-03-22T01:02:02.198Z,8.2
2023-03-22T01:03:02.236Z,8.2
2023-03-22T01:04:02.127Z,8.1
2023-03-22T01:05:02.188Z,8.2
2023-03-22T01:06:02.048Z,8.2
2023-03-22T01:07:02.120Z,8.1
2023-03-22T01:08:01.928Z,8
2023-03-22T01:09:01.928Z,8.1
2023-03-22T01:10:01.932Z,8
2023-03-22T01:11:01.770Z,7.9
2023-03-22T01:12:01.716Z,8
2023-03-22T01:13:01.800Z,8
2023-03-22T01:14:01.631Z,8
2023-03-22T01:15:01.632Z,7.9
2023-03-22T01:16:01.505Z,7.9
2023-03-22T01:17:01.463Z,7.9
2023-03-22T01:18:01.431Z,7.9
2023-03-22T01:19:01.347Z,7.8
2023-03-22T01:20:01.433Z,7.9
2023-03-22T01:21:02.354Z,7.8
2023-03-22T01:22:02.261Z,7.8
2023-03-22T01:23:02.310Z,7.8
2023-03-22T01:24:02.159Z,7.7
2023-03-22T01:25:02.226Z,7.7
2023-03-22T01:26:02.097Z,7.7
2023-03-22T01:27:02.170Z,7.6
2023-03-22T01:28:01.983Z,7.6
2023-03-22T01:29:01.921Z,7.6
2023-03-22T01:30:01.980Z,7.6
2023-03-22T01:31:01.868Z,7.6
2023-03-22T01:32:01.815Z,7.6
2023-03-22T01:33:01.860Z,7.6
2023-03-22T01:34:01.708Z,7.7
2023-03-22T01:35:01.761Z,7.8
2023-03-22T01:36:01.653Z,7.6
2023-03-22T01:37:01.639Z,7.6
2023-03-22T01:38:01.522Z,7.6
2023-03-22T01:39:01.507Z,7.7
2023-03-22T01:40:01.352Z,7.7
2023-03-22T01:41:02.396Z,7.7
2023-03-22T01:42:02.269Z,7.7
2023-03-22T01:43:02.376Z,7.7
2023-03-22T01:44:02.242Z,7.7
2023-03-22T01:45:02.326Z,7.7
2023-03-22T01:46:02.262Z,7.7
2023-03-22T01:47:01.309Z,7.6
2023-03-22T01:48:02.454Z,7.6
2023-03-22T01:49:01.445Z,7.7
2023-03-22T01:50:01.354Z,7.7
2023-03-22T01:51:02.405Z,7.6
2023-03-22T01:52:02.283Z,7.6
2023-03-22T01:53:02.329Z,7.6
2023-03-22T01:54:02.386Z,7.6
2023-03-22T01:55:02.221Z,7.6
2023-03-22T01:56:02.149Z,7.6
2023-03-22T01:57:02.243Z,7.6
2023-03-22T01:58:02.076Z,7.6
2023-03-22T01:59:02.129Z,7.6
2023-03-22T02:00:02.070Z,7.6
2023-03-22T02:01:01.997Z,7.6
2023-03-22T02:02:01.914Z,7.6
2023-03-22T02:03:01.952Z,7.6
2023-03-22T02:04:01.928Z,7.6
2023-03-22T02:05:01.864Z,7.6
2023-03-22T02:06:01.914Z,7.5
2023-03-22T02:07:01.776Z,7.5
2023-03-22T02:08:01.733Z,7.6
2023-03-22T02:09:01.738Z,7.5
2023-03-22T02:10:01.526Z,7.6
2023-03-22T02:11:01.527Z,7.6
2023-03-22T02:12:01.397Z,7.5
2023-03-22T02:13:01.440Z,7.5
2023-03-22T02:14:02.396Z,7.4
2023-03-22T02:15:02.276Z,7.4
2023-03-22T02:16:02.365Z,7.4
2023-03-22T02:17:02.229Z,7.4
2023-03-22T02:18:02.228Z,7.5
2023-03-22T02:19:02.083Z,7.5
2023-03-22T02:20:02.161Z,7.5
2023-03-22T02:21:02.533Z,7.5
2023-03-22T02:22:01.533Z,7.6
2023-03-22T02:23:01.574Z,7.4
2023-03-22T02:24:01.415Z,7.4
2023-03-22T02:25:01.420Z,7.3
2023-03-22T02:26:02.394Z,7.4
2023-03-22T02:27:02.311Z,7.3
2023-03-22T02:28:02.321Z,7.3
2023-03-22T02:29:02.203Z,7.4
2023-03-22T02:30:02.274Z,7.5
2023-03-22T02:31:02.158Z,7.4
2023-03-22T02:32:02.231Z,7.3
2023-03-22T02:33:02.277Z,7.3
2023-03-22T02:34:02.203Z,7.3
2023-03-22T02:35:02.283Z,7.3
2023-03-22T02:36:02.153Z,7.3
2023-03-22T02:37:02.184Z,7.4
2023-03-22T02:38:02.012Z,7.3
2023-03-22T02:39:02.242Z,7.4
2023-03-22T02:40:02.134Z,7.4
2023-03-22T02:41:02.154Z,7.4
2023-03-22T02:42:01.996Z,7.4
2023-03-22T02:43:02.056Z,7.5
2023-03-22T02:44:01.917Z,7.5
2023-03-22T02:45:01.914Z,7.4
2023-03-22T02:46:01.919Z,7.5
2023-03-22T02:47:01.605Z,7.4
2023-03-22T02:48:01.725Z,7.5
2023-03-22T02:49:01.586Z,7.5
2023-03-22T02:50:01.538Z,7.4
2023-03-22T02:51:01.479Z,7.4
2023-03-22T02:52:01.459Z,7.3
2023-03-22T02:53:01.319Z,7.4
2023-03-22T02:54:02.379Z,7.4
2023-03-22T02:55:02.246Z,7.4
2023-03-22T02:56:02.257Z,7.4
2023-03-22T02:57:02.186Z,7.4
2023-03-22T02:58:02.270Z,7.4
2023-03-22T02:59:02.124Z,7.4
2023-03-22T03:00:02.167Z,7.4
2023-03-22T03:01:02.076Z,7.3
2023-03-22T03:02:01.352Z,7.4
2023-03-22T03:03:02.384Z,7.4
2023-03-22T03:04:02.253Z,7.4
2023-03-22T03:05:02.324Z,7.4
2023-03-22T03:06:02.166Z,7.4
2023-03-22T03:07:02.254Z,7.3
2023-03-22T03:08:02.132Z,7.4
2023-03-22T03:09:02.197Z,7.4
2023-03-22T03:10:02.036Z,7.3
2023-03-22T03:11:02.078Z,7.4
2023-03-22T03:12:01.916Z,7.3
2023-03-22T03:13:01.910Z,7.3
2023-03-22T03:14:01.927Z,7.3
2023-03-22T03:15:01.773Z,7.3
2023-03-22T03:16:01.779Z,7.2
2023-03-22T03:17:01.718Z,7.3
2023-03-22T03:18:01.780Z,7.3
2023-03-22T03:19:01.636Z,7.3
2023-03-22T03:20:01.616Z,7.3
2023-03-22T03:21:01.622Z,7.3
2023-03-22T03:22:01.521Z,7.3
2023-03-22T03:23:01.567Z,7.4
2023-03-22T03:24:01.535Z,7.4
2023-03-22T03:25:01.413Z,7.4
2023-03-22T03:26:02.341Z,7.4
2023-03-22T03:27:01.950Z,7.4
2023-03-22T03:28:01.695Z,7.3
2023-03-22T03:29:01.563Z,7.3
2023-03-22T03:30:01.543Z,7.3
2023-03-22T03:31:01.431Z,7.3
2023-03-22T03:32:02.162Z,7.2
2023-03-22T03:33:01.964Z,7.2
2023-03-22T03:34:01.819Z,7.2
2023-03-22T03:35:01.722Z,7.2
2023-03-22T03:36:01.755Z,7.2
2023-03-22T03:37:01.667Z,7.3
2023-03-22T03:38:01.701Z,7.2
2023-03-22T03:39:01.499Z,7.3
2023-03-22T03:40:01.536Z,7.3
2023-03-22T03:41:01.415Z,7.3
2023-03-22T03:42:01.452Z,7.3
2023-03-22T03:43:01.312Z,7.3
2023-03-22T03:44:02.419Z,7.3
2023-03-22T03:45:02.288Z,7.3
2023-03-22T03:46:02.395Z,7.3
2023-03-22T03:47:02.177Z,7.2
2023-03-22T03:48:02.236Z,7.3
2023-03-22T03:49:02.176Z,7.3
2023-03-22T03:50:02.262Z,7.3
2023-03-22T03:51:02.161Z,7.3
2023-03-22T03:52:02.171Z,7.2
2023-03-22T03:53:02.035Z,7.3
2023-03-22T03:54:01.983Z,7.3
2023-03-22T03:55:02.026Z,7.3
2023-03-22T03:56:01.868Z,7.3
2023-03-22T03:57:03.951Z,7.2
2023-03-22T03:58:01.853Z,7.3
2023-03-22T03:59:01.920Z,7.4
2023-03-22T04:00:03.023Z,7.4
2023-03-22T04:01:01.949Z,7.3
2023-03-22T04:02:02.085Z,7.3
2023-03-22T04:03:02.090Z,7.3
2023-03-22T04:04:01.971Z,7.3
2023-03-22T04:05:01.948Z,7.2
2023-03-22T04:06:01.988Z,7.3
2023-03-22T04:07:01.826Z,7.3
2023-03-22T04:08:01.786Z,7.3
2023-03-22T04:09:01.838Z,7.3
2023-03-22T04:10:01.697Z,7.3
2023-03-22T04:11:01.697Z,7.3
2023-03-22T04:12:01.603Z,7.3
2023-03-22T04:13:01.620Z,7.1
2023-03-22T04:14:01.524Z,7.2
2023-03-22T04:15:01.552Z,7.2
2023-03-22T04:16:01.352Z,7.2
2023-03-22T04:17:02.316Z,7.3
2023-03-22T04:18:02.383Z,7.2
2023-03-22T04:19:02.422Z,7.2
2023-03-22T04:20:03.672Z,7.2
2023-03-22T04:21:01.724Z,7.1
2023-03-22T04:22:01.776Z,7.2
2023-03-22T04:23:01.664Z,7.3
2023-03-22T04:24:01.689Z,7.2
2023-03-22T04:25:01.572Z,7.2
2023-03-22T04:26:01.516Z,7.2
2023-03-22T04:27:01.415Z,7.1
2023-03-22T04:28:01.468Z,7.2
2023-03-22T04:29:01.328Z,7.1
2023-03-22T04:30:02.398Z,7.1
2023-03-22T04:31:02.281Z,7.1
2023-03-22T04:32:01.365Z,7.1
2023-03-22T04:33:01.397Z,7.1
2023-03-22T04:34:02.339Z,7.1
2023-03-22T04:35:02.243Z,7.1
2023-03-22T04:36:04.459Z,7.2
2023-03-22T04:37:01.374Z,7.1
2023-03-22T04:38:01.452Z,7
2023-03-22T04:39:02.361Z,7.1
2023-03-22T04:40:02.225Z,7.2
2023-03-22T04:41:02.324Z,7.1
2023-03-22T04:42:02.218Z,7.1
2023-03-22T04:43:02.250Z,7.1
2023-03-22T04:44:02.120Z,7.1
2023-03-22T04:45:02.232Z,7.1
2023-03-22T04:46:02.045Z,7.1
2023-03-22T04:47:02.186Z,7.1
2023-03-22T04:48:02.340Z,7.1
2023-03-22T04:49:02.237Z,7.1
2023-03-22T04:50:02.325Z,7
2023-03-22T04:51:02.169Z,7.1
2023-03-22T04:52:02.275Z,7.1
2023-03-22T04:53:02.133Z,7.1
2023-03-22T04:54:02.208Z,7.1
2023-03-22T04:55:02.073Z,7.1
2023-03-22T04:56:02.139Z,7.1
2023-03-22T04:57:01.999Z,7
2023-03-22T04:58:01.930Z,7
2023-03-22T04:59:01.990Z,6.9
2023-03-22T05:00:02.350Z,6.8
2023-03-22T05:01:02.216Z,6.8
2023-03-22T05:02:01.611Z,6.8
2023-03-22T05:03:01.620Z,6.8
2023-03-22T05:04:01.551Z,6.8
2023-03-22T05:05:01.600Z,6.8
2023-03-22T05:06:01.682Z,6.9
2023-03-22T05:07:01.706Z,6.9
2023-03-22T05:08:01.555Z,6.9
2023-03-22T05:09:01.597Z,6.9
2023-03-22T05:10:01.465Z,6.9
2023-03-22T05:11:01.502Z,6.9
2023-03-22T05:12:01.400Z,6.9
2023-03-22T05:13:01.433Z,7
2023-03-22T05:14:02.429Z,6.9
2023-03-22T05:15:02.280Z,6.9
2023-03-22T05:16:02.378Z,6.9
2023-03-22T05:17:02.246Z,7
2023-03-22T05:18:02.318Z,7
2023-03-22T05:19:02.179Z,7
2023-03-22T05:20:02.244Z,7
2023-03-22T05:21:02.129Z,7
2023-03-22T05:22:02.264Z,7
2023-03-22T05:23:02.109Z,6.9
2023-03-22T05:24:02.027Z,6.9
2023-03-22T05:25:01.568Z,6.9
2023-03-22T05:26:01.638Z,6.9
2023-03-22T05:27:01.465Z,7
2023-03-22T05:28:01.540Z,6.9
2023-03-22T05:29:01.477Z,6.9
2023-03-22T05:30:01.369Z,6.8
2023-03-22T05:31:01.334Z,6.8
2023-03-22T05:32:01.313Z,6.9
2023-03-22T05:33:02.355Z,6.9
2023-03-22T05:34:02.348Z,7
2023-03-22T05:35:02.285Z,7
2023-03-22T05:36:02.219Z,7
2023-03-22T05:37:02.261Z,7
2023-03-22T05:38:02.155Z,7
2023-03-22T05:39:02.167Z,7
2023-03-22T05:40:02.141Z,7
2023-03-22T05:41:02.028Z,7.1
2023-03-22T05:42:01.946Z,7
2023-03-22T05:43:01.876Z,7
2023-03-22T05:44:01.942Z,7.1
2023-03-22T05:45:01.817Z,7
2023-03-22T05:46:01.768Z,6.9
2023-03-22T05:47:01.821Z,7
2023-03-22T05:48:01.927Z,7
2023-03-22T05:49:01.824Z,7
2023-03-22T05:50:01.734Z,7
2023-03-22T05:51:01.783Z,7
2023-03-22T05:52:01.617Z,7.1
2023-03-22T05:53:01.667Z,7
2023-03-22T05:54:01.511Z,7
2023-03-22T05:55:01.557Z,7.1
2023-03-22T05:56:01.399Z,7
2023-03-22T05:57:01.435Z,7.1
2023-03-22T05:58:01.338Z,7.1
2023-03-22T05:59:02.410Z,7.2
2023-03-22T06:00:02.237Z,7.2
2023-03-22T06:01:02.312Z,7.3
2023-03-22T06:02:02.120Z,7.2
2023-03-22T06:03:02.091Z,7.3
2023-03-22T06:04:01.995Z,7.3
2023-03-22T06:05:01.901Z,7.3
2023-03-22T06:06:01.954Z,7.3
2023-03-22T06:07:01.818Z,7.3
2023-03-22T06:08:01.791Z,7.2
2023-03-22T06:09:15.830Z,7.3
2023-03-22T06:10:01.630Z,7.2
2023-03-22T06:11:01.673Z,7.2
2023-03-22T06:12:01.532Z,7.3
2023-03-22T06:13:01.624Z,7.3
2023-03-22T06:14:01.580Z,7.3
2023-03-22T06:15:01.421Z,7.3
2023-03-22T06:16:01.429Z,7.2
2023-03-22T06:17:01.379Z,7.3
2023-03-22T06:18:01.437Z,7.4
2023-03-22T06:19:02.384Z,7.3
2023-03-22T06:20:02.295Z,7.3
2023-03-22T06:21:02.379Z,7.3
2023-03-22T06:22:02.243Z,7.3
2023-03-22T06:23:02.295Z,7.2
2023-03-22T06:24:02.201Z,7.3
2023-03-22T06:25:02.226Z,7.3
2023-03-22T06:26:02.097Z,7.3
2023-03-22T06:27:02.183Z,7.2
2023-03-22T06:28:02.063Z,7.3
2023-03-22T06:29:02.039Z,7.3
2023-03-22T06:30:02.473Z,7.3
2023-03-22T06:31:02.320Z,7.3
2023-03-22T06:32:02.136Z,7.4
2023-03-22T06:33:02.204Z,7.3
2023-03-22T06:34:02.057Z,7.4
2023-03-22T06:35:02.091Z,7.4
2023-03-22T06:36:02.038Z,7.4
2023-03-22T06:37:01.967Z,7.5
2023-03-22T06:38:02.021Z,7.4
2023-03-22T06:39:01.888Z,7.4
2023-03-22T06:40:01.839Z,7.6
2023-03-22T06:41:01.724Z,7.5
2023-03-22T06:42:01.577Z,7.5
2023-03-22T06:43:04.582Z,7.6
2023-03-22T06:44:01.934Z,7.7
2023-03-22T06:45:01.740Z,7.6
2023-03-22T06:46:01.596Z,7.7
2023-03-22T06:47:01.708Z,7.6
2023-03-22T06:48:01.606Z,7.7
2023-03-22T06:49:01.574Z,7.8
2023-03-22T06:50:02.404Z,7.8
2023-03-22T06:51:02.174Z,7.8
2023-03-22T06:52:01.968Z,7.9
2023-03-22T06:53:01.705Z,7.9
2023-03-22T06:54:01.637Z,7.9
2023-03-22T06:55:01.492Z,7.9
2023-03-22T06:56:02.354Z,7.9
2023-03-22T06:57:02.118Z,7.9
2023-03-22T06:58:01.943Z,7.9
2023-03-22T06:59:01.696Z,7.9
2023-03-22T07:00:12.294Z,8
2023-03-22T07:01:02.084Z,8
2023-03-22T07:02:01.850Z,7.9
2023-03-22T07:03:01.819Z,8
2023-03-22T07:04:02.782Z,7.9
2023-03-22T07:05:04.925Z,7.9
2023-03-22T07:06:02.038Z,7.9
2023-03-22T07:07:01.890Z,8
2023-03-22T07:08:01.907Z,8
2023-03-22T07:09:01.864Z,8.1
2023-03-22T07:10:01.756Z,8.1
2023-03-22T07:11:01.538Z,8.1
2023-03-22T07:12:02.409Z,8.1
2023-03-22T07:13:01.889Z,8.1
2023-03-22T07:14:01.755Z,8.3
2023-03-22T07:15:01.380Z,8.1
2023-03-22T07:16:02.210Z,8.2
2023-03-22T07:17:01.420Z,8.1
2023-03-22T07:18:02.261Z,8.1
2023-03-22T07:19:02.005Z,8.2
2023-03-22T07:20:01.952Z,8.2
2023-03-22T07:21:01.721Z,8.2
2023-03-22T07:22:01.628Z,8.3
2023-03-22T07:23:01.520Z,8.3
2023-03-22T07:24:02.344Z,8.5
2023-03-22T07:25:02.087Z,8.5
2023-03-22T07:26:01.913Z,8.4
2023-03-22T07:27:01.676Z,8.5
2023-03-22T07:28:01.546Z,8.6
2023-03-22T07:29:01.317Z,8.7
2023-03-22T07:30:02.146Z,8.7
2023-03-22T07:31:01.883Z,8.8
2023-03-22T07:32:01.481Z,8.8
2023-03-22T07:33:01.667Z,8.8
2023-03-22T07:34:01.451Z,8.8
2023-03-22T07:35:02.280Z,8.7
2023-03-22T07:36:02.115Z,8.8
2023-03-22T07:37:02.359Z,8.8
2023-03-22T07:38:01.403Z,8.8
2023-03-22T07:39:02.232Z,8.9
2023-03-22T07:40:01.959Z,8.9
2023-03-22T07:41:01.847Z,9
2023-03-22T07:42:01.586Z,9.1
2023-03-22T07:43:01.510Z,9
2023-03-22T07:44:15.157Z,9.1
2023-03-22T07:45:02.071Z,9.1
2023-03-22T07:46:02.088Z,9.1
2023-03-22T07:47:02.347Z,9.2
2023-03-22T07:48:02.417Z,9.1
2023-03-22T07:49:02.417Z,9.3
2023-03-22T07:50:02.353Z,9.3
2023-03-22T07:51:01.442Z,9.3
2023-03-22T07:52:01.403Z,9.4
2023-03-22T07:53:01.394Z,9.4
2023-03-22T07:54:01.377Z,9.3
2023-03-22T07:55:01.511Z,9.4
2023-03-22T07:56:01.387Z,9.6
2023-03-22T07:57:01.471Z,9.5
2023-03-22T07:58:01.402Z,9.5
2023-03-22T07:59:01.490Z,9.5
2023-03-22T08:00:02.230Z,9.5
2023-03-22T08:01:02.156Z,9.7
2023-03-22T08:02:02.094Z,9.7
2023-03-22T08:03:02.173Z,9.6
2023-03-22T08:04:02.366Z,9.8
2023-03-22T08:05:02.262Z,9.6
2023-03-22T08:06:02.373Z,9.6
2023-03-22T08:07:02.264Z,9.7
2023-03-22T08:08:02.350Z,9.8
2023-03-22T08:09:02.285Z,9.8
2023-03-22T08:10:02.335Z,9.8
2023-03-22T08:11:02.186Z,9.9
2023-03-22T08:12:02.287Z,9.9
2023-03-22T08:13:02.174Z,10
2023-03-22T08:14:02.181Z,10
2023-03-22T08:15:02.115Z,10.1
2023-03-22T08:16:02.281Z,10.1
2023-03-22T08:17:01.983Z,10.2
2023-03-22T08:18:02.072Z,10
2023-03-22T08:19:01.920Z,10.2
2023-03-22T08:20:01.872Z,10.2
2023-03-22T08:21:01.929Z,10.2
2023-03-22T08:22:01.715Z,10.3
2023-03-22T08:23:01.768Z,10.3
2023-03-22T08:24:01.630Z,10.2
2023-03-22T08:25:01.624Z,10.2
2023-03-22T08:26:01.507Z,10.2
2023-03-22T08:27:01.490Z,10.2
2023-03-22T08:28:01.355Z,10.3
2023-03-22T08:29:01.408Z,10.3
2023-03-22T08:30:01.351Z,10.3
2023-03-22T08:31:01.439Z,10.3
2023-03-22T08:32:01.643Z,10.3
2023-03-22T08:33:01.837Z,10.4
2023-03-22T08:34:01.820Z,10.5
2023-03-22T08:35:01.717Z,10.4
2023-03-22T08:36:01.849Z,10.6
2023-03-22T08:37:01.896Z,10.6
2023-03-22T08:38:01.819Z,10.6
2023-03-22T08:39:01.886Z,10.6
2023-03-22T08:40:01.786Z,10.6
2023-03-22T08:41:01.865Z,10.7
2023-03-22T08:42:02.232Z,10.6
2023-03-22T08:43:02.386Z,10.7
2023-03-22T08:44:02.224Z,10.8
2023-03-22T08:45:02.320Z,10.7
2023-03-22T08:46:02.325Z,10.7
2023-03-22T08:47:02.802Z,10.8
2023-03-22T08:48:02.059Z,10.8
2023-03-22T08:49:01.947Z,10.9
2023-03-22T08:50:01.927Z,11
2023-03-22T08:51:01.913Z,11.1
2023-03-22T08:52:01.788Z,11.1
2023-03-22T08:53:01.724Z,11.1
2023-03-22T08:54:01.710Z,11.3
2023-03-22T08:55:01.518Z,11.3
2023-03-22T08:56:01.518Z,11.1
2023-03-22T08:57:01.388Z,11.2
2023-03-22T08:58:01.452Z,11.3
2023-03-22T08:59:01.471Z,11.3
2023-03-22T09:00:01.718Z,11.3
2023-03-22T09:01:01.775Z,11.4
2023-03-22T09:02:01.466Z,11.5
2023-03-22T09:03:01.823Z,11.5
2023-03-22T09:04:01.766Z,11.5
2023-03-22T09:05:01.677Z,11.5
2023-03-22T09:06:01.748Z,11.5
2023-03-22T09:07:01.587Z,11.7
2023-03-22T09:08:06.212Z,11.7
2023-03-22T09:09:01.480Z,11.7
2023-03-22T09:10:01.500Z,11.9
2023-03-22T09:11:01.369Z,11.7
2023-03-22T09:12:01.427Z,11.7
2023-03-22T09:13:01.356Z,11.8
2023-03-22T09:14:01.558Z,11.8
2023-03-22T09:15:02.445Z,11.9
2023-03-22T09:16:02.321Z,11.7
2023-03-22T09:17:01.358Z,11.7
2023-03-22T09:18:01.478Z,11.8
2023-03-22T09:19:01.338Z,11.8
2023-03-22T09:20:11.783Z,11.8
2023-03-22T09:21:01.917Z,11.9
2023-03-22T09:22:01.984Z,12.1
2023-03-22T09:23:01.842Z,12.1
2023-03-22T09:24:01.739Z,12
2023-03-22T09:25:01.763Z,12
2023-03-22T09:26:02.129Z,12.1
2023-03-22T09:27:02.059Z,12.2
2023-03-22T09:28:02.061Z,12.3
2023-03-22T09:29:01.937Z,12.3
2023-03-22T09:30:01.899Z,12.3
2023-03-22T09:31:01.971Z,12.3
2023-03-22T09:32:01.979Z,12.3
2023-03-22T09:33:01.881Z,12.3
2023-03-22T09:34:01.955Z,12.5
2023-03-22T09:35:01.741Z,12.6
2023-03-22T09:36:01.725Z,12.4
2023-03-22T09:37:01.722Z,12.3
2023-03-22T09:38:01.640Z,12.5
2023-03-22T09:39:01.692Z,12.5
2023-03-22T09:40:01.584Z,12.6
2023-03-22T09:41:01.582Z,12.8
2023-03-22T09:42:01.458Z,12.9
2023-03-22T09:43:01.469Z,12.9
2023-03-22T09:44:01.348Z,13.2
2023-03-22T09:45:01.443Z,13.2
2023-03-22T09:46:01.429Z,13.2
2023-03-22T09:47:01.594Z,13.2
2023-03-22T09:48:01.647Z,13.4
2023-03-22T09:49:01.408Z,13.7
2023-03-22T09:50:01.378Z,13.5
2023-03-22T09:51:02.379Z,13.7
2023-03-22T09:52:02.299Z,13.7
2023-03-22T09:53:02.253Z,13.6
2023-03-22T09:54:02.143Z,13.6
2023-03-22T09:55:02.191Z,14.2
2023-03-22T09:56:02.038Z,14.2
2023-03-22T09:57:02.028Z,14.2
2023-03-22T09:58:01.946Z,14.4
2023-03-22T09:59:01.879Z,14.9
2023-03-22T10:00:02.465Z,15
2023-03-22T10:01:01.579Z,15
2023-03-22T10:02:02.324Z,14.8
2023-03-22T10:03:01.856Z,15.1
2023-03-22T10:04:01.803Z,15.2
2023-03-22T10:05:01.820Z,15.2
2023-03-22T10:06:01.912Z,15
2023-03-22T10:07:01.782Z,15.1
2023-03-22T10:08:01.747Z,15
2023-03-22T10:09:01.785Z,15.2
2023-03-22T10:10:01.635Z,15.6
2023-03-22T10:11:01.680Z,15.5
2023-03-22T10:12:01.506Z,14.9
2023-03-22T10:13:01.542Z,15.1
2023-03-22T10:14:01.395Z,15.4
2023-03-22T10:15:01.410Z,15.2
2023-03-22T10:16:02.471Z,15.2
2023-03-22T10:17:02.270Z,15
2023-03-22T10:18:02.365Z,15.1
2023-03-22T10:19:02.214Z,15.1
2023-03-22T10:20:02.269Z,15
2023-03-22T10:21:02.112Z,15
2023-03-22T10:22:02.163Z,14.8
2023-03-22T10:23:02.023Z,14.9
2023-03-22T10:24:01.973Z,15.1
2023-03-22T10:25:01.926Z,14.8
2023-03-22T10:26:01.907Z,14.9
2023-03-22T10:27:01.823Z,14.9
2023-03-22T10:28:01.862Z,15.1
2023-03-22T10:29:03.741Z,14.9
2023-03-22T10:30:01.875Z,14.9
2023-03-22T10:31:03.747Z,15.2
2023-03-22T10:32:01.867Z,15
2023-03-22T10:33:01.834Z,15.1
2023-03-22T10:34:01.869Z,14.8
2023-03-22T10:35:01.708Z,15
2023-03-22T10:36:01.814Z,15.4
2023-03-22T10:37:01.686Z,15.7
2023-03-22T10:38:01.530Z,15.5
2023-03-22T10:39:01.421Z,15.4
2023-03-22T10:40:01.436Z,15.1
2023-03-22T10:41:02.396Z,15.4
2023-03-22T10:42:02.250Z,15.2
2023-03-22T10:43:02.242Z,15.3
2023-03-22T10:44:02.144Z,15.2
2023-03-22T10:45:02.201Z,15.5
2023-03-22T10:46:02.058Z,15.7
2023-03-22T10:47:02.160Z,15.6
2023-03-22T10:48:02.281Z,15.6
2023-03-22T10:49:02.179Z,15.5
2023-03-22T10:50:02.239Z,15.7
2023-03-22T10:51:01.369Z,15.7
2023-03-22T10:52:01.418Z,15.5
2023-03-22T10:53:02.382Z,15.9
2023-03-22T10:54:02.257Z,15.7
2023-03-22T10:55:04.419Z,15.5
2023-03-22T10:56:01.377Z,15.5
2023-03-22T10:57:01.446Z,15.2
2023-03-22T10:58:02.375Z,15.1
2023-03-22T10:59:02.210Z,15.2
2023-03-22T11:00:02.274Z,15.3
2023-03-22T11:01:02.210Z,15.4
2023-03-22T11:02:01.616Z,15.2
2023-03-22T11:03:01.920Z,15.4
2023-03-22T11:04:01.838Z,15.4
2023-03-22T11:05:01.763Z,15.2
2023-03-22T11:06:01.785Z,15.2
2023-03-22T11:07:01.644Z,15.4
2023-03-22T11:08:01.650Z,15.3
2023-03-22T11:09:01.528Z,15.5
2023-03-22T11:10:01.535Z,15.9
2023-03-22T11:11:01.351Z,16.1
2023-03-22T11:12:01.455Z,16
2023-03-22T11:13:01.336Z,16.3
2023-03-22T11:14:01.398Z,16.4
2023-03-22T11:15:02.409Z,16.4
2023-03-22T11:16:02.477Z,16.6
2023-03-22T11:17:01.389Z,16.7
2023-03-22T11:18:01.410Z,16.7
2023-03-22T11:19:02.378Z,17
2023-03-22T11:20:02.298Z,16.9
2023-03-22T11:21:02.339Z,17.4
2023-03-22T11:22:02.187Z,17
2023-03-22T11:23:02.233Z,17.1
2023-03-22T11:24:02.084Z,17
2023-03-22T11:25:02.054Z,16.9
2023-03-22T11:26:01.952Z,16.5
2023-03-22T11:27:01.861Z,16.6
2023-03-22T11:28:01.907Z,17
2023-03-22T11:29:01.790Z,17.1
2023-03-22T11:30:01.713Z,17.4
2023-03-22T11:31:01.735Z,17.9
2023-03-22T11:32:01.697Z,18.2
2023-03-22T11:33:01.743Z,17.7
2023-03-22T11:34:01.890Z,18.5
2023-03-22T11:35:01.732Z,19.1
2023-03-22T11:36:01.813Z,18.2
2023-03-22T11:37:02.131Z,18.1
2023-03-22T11:38:01.905Z,18.6
2023-03-22T11:39:01.877Z,18.7
2023-03-22T11:40:01.935Z,17.9
2023-03-22T11:41:01.768Z,17.9
2023-03-22T11:42:01.866Z,18
2023-03-22T11:43:01.729Z,18.2
2023-03-22T11:44:01.591Z,18.2
2023-03-22T11:45:01.542Z,18.4
2023-03-22T11:46:01.482Z,18.5
2023-03-22T11:47:01.756Z,18.9
2023-03-22T11:48:01.830Z,18.8
2023-03-22T11:49:02.118Z,19.1
2023-03-22T11:50:02.217Z,19.6
2023-03-22T11:51:02.237Z,18.5
2023-03-22T11:52:03.374Z,18.7
2023-03-22T11:53:01.922Z,18.4
2023-03-22T11:54:01.920Z,19.1
2023-03-22T11:55:01.790Z,19.1
2023-03-22T11:56:01.744Z,18.9
2023-03-22T11:57:01.759Z,19.3
2023-03-22T11:58:01.649Z,19.6
2023-03-22T11:59:01.700Z,19.6
2023-03-22T12:00:02.605Z,19.2
2023-03-22T12:01:01.429Z,18.8
2023-03-22T12:02:01.812Z,18.9
2023-03-22T12:03:01.927Z,18.7
2023-03-22T12:04:01.961Z,18.8
2023-03-22T12:05:02.077Z,18.7
2023-03-22T12:06:02.257Z,19
2023-03-22T12:07:02.103Z,19
2023-03-22T12:08:02.161Z,18.2
2023-03-22T12:09:02.029Z,18.5
2023-03-22T12:10:02.000Z,19
2023-03-22T12:11:02.049Z,19
2023-03-22T12:12:01.894Z,18.7
2023-03-22T12:13:01.917Z,18.5
2023-03-22T12:14:01.982Z,18.7
2023-03-22T12:15:01.880Z,19.4
2023-03-22T12:16:01.873Z,19.5
2023-03-22T12:17:02.320Z,19.4
2023-03-22T12:18:02.430Z,19.4
2023-03-22T12:19:01.394Z,19.4
2023-03-22T12:20:02.407Z,19.7
2023-03-22T12:21:02.235Z,19.6
2023-03-22T12:22:02.297Z,19.2
2023-03-22T12:23:02.145Z,18.9
2023-03-22T12:24:02.211Z,19
2023-03-22T12:25:02.068Z,18.8
2023-03-22T12:26:02.046Z,19
2023-03-22T12:27:01.949Z,19.4
2023-03-22T12:28:01.926Z,19.8
2023-03-22T12:29:01.920Z,19.5
2023-03-22T12:30:01.836Z,19.9
2023-03-22T12:31:01.706Z,19.9
2023-03-22T12:32:01.786Z,19.6
2023-03-22T12:33:01.945Z,19.7
2023-03-22T12:34:01.832Z,19.3
2023-03-22T12:35:17.882Z,20
2023-03-22T12:36:02.251Z,20.1
2023-03-22T12:37:02.287Z,19.4
2023-03-22T12:38:02.154Z,19.8
2023-03-22T12:39:02.303Z,19.3
2023-03-22T12:40:02.044Z,19.5
2023-03-22T12:41:02.096Z,19.4
2023-03-22T12:42:01.916Z,19.3
2023-03-22T12:43:01.857Z,18.6
2023-03-22T12:44:01.901Z,19.2
2023-03-22T12:45:05.004Z,19.1
2023-03-22T12:46:01.560Z,18.6
2023-03-22T12:47:01.780Z,18.9
2023-03-22T12:48:01.707Z,19
2023-03-22T12:49:01.899Z,18.9
2023-03-22T12:50:02.167Z,18.6
2023-03-22T12:51:02.078Z,18.9
2023-03-22T12:52:02.100Z,19.2
2023-03-22T12:53:01.947Z,19.5
2023-03-22T12:54:01.895Z,19.7
2023-03-22T12:55:01.342Z,19.7
2023-03-22T12:56:02.346Z,20.1
2023-03-22T12:57:02.223Z,19.7
2023-03-22T12:58:02.251Z,20.1
2023-03-22T12:59:02.097Z,20
2023-03-22T13:00:02.816Z,19.7
2023-03-22T13:01:01.670Z,19.3
2023-03-22T13:02:02.122Z,19.8
2023-03-22T13:03:02.248Z,20.3
2023-03-22T13:04:01.437Z,20.4
2023-03-22T13:05:01.426Z,19.7
2023-03-22T13:06:02.350Z,20.2
2023-03-22T13:07:02.203Z,20.4
2023-03-22T13:08:02.273Z,20
2023-03-22T13:09:02.129Z,19.4
2023-03-22T13:10:02.184Z,19.6
2023-03-22T13:11:02.018Z,20.2
2023-03-22T13:12:02.063Z,19.8
2023-03-22T13:13:01.923Z,19.7
2023-03-22T13:14:01.909Z,19.9
2023-03-22T13:15:01.924Z,20.2
2023-03-22T13:16:01.830Z,20.4
2023-03-22T13:17:01.976Z,20.6
2023-03-22T13:18:02.123Z,19.6
2023-03-22T13:19:02.028Z,20.3
2023-03-22T13:20:02.067Z,20.5
2023-03-22T13:21:02.113Z,20.9
2023-03-22T13:22:01.892Z,21.3
2023-03-22T13:23:01.856Z,21.5
2023-03-22T13:24:01.888Z,21
2023-03-22T13:25:01.821Z,21
2023-03-22T13:26:01.675Z,20.6
2023-03-22T13:27:01.725Z,20.9
2023-03-22T13:28:01.558Z,20.9
2023-03-22T13:29:01.595Z,21
2023-03-22T13:30:01.402Z,21
2023-03-22T13:31:01.488Z,20.7
2023-03-22T13:32:01.556Z,20.1
2023-03-22T13:33:01.739Z,20.5
2023-03-22T13:34:01.677Z,20.8
2023-03-22T13:35:01.699Z,21.2
2023-03-22T13:36:01.906Z,21.3
2023-03-22T13:37:01.530Z,21.5
2023-03-22T13:38:01.495Z,21.5
2023-03-22T13:39:01.370Z,21.5
2023-03-22T13:40:01.487Z,21.2